Time;durP1;ratioP1;P1;durP2;ratioP2;P2;SDS_P1;SDS_P2;PMS_P1;PMS_P2;Temp;Humidity;BMP_temperature;BMP_pressure;BME280_temperature;BME280_humidity;BME280_pressure;Samples;Min_cycle;Max_cycle;Signal;HPM_P1;HPM_P2
2022/06/25 00:01:14;;;;;;;0.55;0.55;;;18.90;99.90;;;;;;5057594;28;20178;-60
2022/06/25 00:03:41;;;;;;;0.60;0.60;;;18.80;99.90;;;;;;5075030;28;20175;-60
2022/06/25 00:06:07;;;;;;;0.50;0.50;;;18.80;99.90;;;;;;5073848;28;20255;-60
2022/06/25 00:08:35;;;;;;;0.50;0.50;;;18.80;99.90;;;;;;5074802;28;20257;-60
2022/06/25 00:11:01;;;;;;;0.45;0.45;;;18.70;99.90;;;;;;5074652;28;20181;-60
2022/06/25 00:13:27;;;;;;;0.90;0.40;;;18.70;99.90;;;;;;5074909;28;20254;-60
2022/06/25 00:15:53;;;;;;;0.45;0.45;;;18.80;99.90;;;;;;5074814;28;20167;-59
2022/06/25 00:18:19;;;;;;;0.75;0.50;;;18.70;99.90;;;;;;5056805;28;20194;-60
2022/06/25 00:20:46;;;;;;;1.02;0.93;;;18.70;99.90;;;;;;5074511;28;20620;-60
2022/06/25 00:23:12;;;;;;;0.40;0.40;;;18.70;99.90;;;;;;5074683;28;20174;-61
2022/06/25 00:25:38;;;;;;;0.55;0.55;;;18.70;99.90;;;;;;5074565;28;20484;-60
2022/06/25 00:28:04;;;;;;;0.50;0.50;;;18.50;99.90;;;;;;5056798;28;20171;-60
2022/06/25 00:30:30;;;;;;;1.05;0.60;;;18.50;99.90;;;;;;5056434;28;20537;-59
2022/06/25 00:32:56;;;;;;;0.43;0.43;;;18.40;99.90;;;;;;5056608;28;20267;-60
2022/06/25 00:35:23;;;;;;;0.52;0.52;;;18.40;99.90;;;;;;5074484;28;20171;-61
2022/06/25 00:37:48;;;;;;;0.43;0.43;;;18.40;99.90;;;;;;5073135;28;20171;-60
2022/06/25 00:40:14;;;;;;;0.65;0.50;;;18.40;99.90;;;;;;5074348;28;20179;-60
2022/06/25 00:42:49;;;;;;;0.45;0.45;;;18.40;99.90;;;;;;5056574;28;20221;-60
2022/06/25 00:45:15;;;;;;;0.40;0.40;;;18.30;99.90;;;;;;5074177;28;20194;-60
2022/06/25 00:47:40;;;;;;;0.60;0.60;;;18.20;99.90;;;;;;5074009;28;20260;-61
2022/06/25 00:50:08;;;;;;;0.50;0.50;;;18.20;99.90;;;;;;5073829;28;20202;-60
2022/06/25 00:52:35;;;;;;;0.52;0.52;;;18.30;99.90;;;;;;5074152;28;20206;-60
2022/06/25 00:55:12;;;;;;;0.52;0.52;;;18.10;99.90;;;;;;5056083;28;20225;-60
2022/06/25 00:57:43;;;;;;;0.60;0.50;;;18.20;99.90;;;;;;5073925;28;20198;-60
2022/06/25 01:00:15;;;;;;;0.40;0.40;;;18.10;99.90;;;;;;5074216;28;20174;-60
2022/06/25 01:02:42;;;;;;;0.47;0.47;;;18.10;99.90;;;;;;5039500;28;20214;-58
2022/06/25 01:05:10;;;;;;;0.68;0.45;;;18.10;99.90;;;;;;5073835;28;20198;-60
2022/06/25 01:07:37;;;;;;;0.57;0.57;;;18.00;99.90;;;;;;5073907;28;20582;-60
2022/06/25 01:10:06;;;;;;;0.50;0.47;;;18.00;99.90;;;;;;5073562;28;20167;-62
2022/06/25 01:12:32;;;;;;;0.77;0.60;;;18.00;99.90;;;;;;5073528;28;20206;-60
2022/06/25 01:15:09;;;;;;;1.05;0.80;;;18.00;99.90;;;;;;5073479;28;20175;-60
2022/06/25 01:17:41;;;;;;;0.50;0.50;;;18.10;99.90;;;;;;5055558;28;20224;-60
2022/06/25 01:20:08;;;;;;;1.75;0.63;;;18.00;99.90;;;;;;5073411;28;20183;-60
2022/06/25 01:22:33;;;;;;;0.65;0.50;;;18.10;99.90;;;;;;5073419;28;20653;-60
2022/06/25 01:24:59;;;;;;;0.50;0.50;;;18.00;99.90;;;;;;5055643;28;20186;-61
2022/06/25 01:27:25;;;;;;;0.60;0.60;;;17.90;99.90;;;;;;5073379;28;20167;-60
2022/06/25 01:29:51;;;;;;;0.60;0.60;;;17.90;99.90;;;;;;5073286;28;20281;-60
2022/06/25 01:32:17;;;;;;;0.50;0.40;;;17.90;99.90;;;;;;5073575;28;20206;-60
2022/06/25 01:34:42;;;;;;;1.40;0.57;;;17.90;99.90;;;;;;5073380;28;20166;-60
2022/06/25 01:37:08;;;;;;;0.90;0.70;;;17.80;99.90;;;;;;5055449;28;20257;-60
2022/06/25 01:39:34;;;;;;;0.50;0.50;;;17.80;99.90;;;;;;5073210;28;20182;-60
2022/06/25 01:42:00;;;;;;;1.23;0.57;;;17.70;99.90;;;;;;5073176;28;20186;-60
2022/06/25 01:44:28;;;;;;;1.08;0.60;;;17.80;99.90;;;;;;5073490;28;20174;-60
2022/06/25 01:46:55;;;;;;;0.50;0.50;;;17.80;99.90;;;;;;5073540;28;20200;-60
2022/06/25 01:49:22;;;;;;;0.70;0.60;;;17.80;99.90;;;;;;5073243;28;20185;-60
2022/06/25 01:51:48;;;;;;;0.88;0.65;;;17.70;99.90;;;;;;5073029;28;20214;-60
2022/06/25 01:54:14;;;;;;;0.65;0.60;;;17.80;99.90;;;;;;5073084;28;20697;-60
2022/06/25 01:56:40;;;;;;;1.40;0.60;;;17.70;99.90;;;;;;5073116;28;20209;-61
2022/06/25 01:59:06;;;;;;;0.68;0.68;;;17.70;99.90;;;;;;5073216;28;20539;-59
2022/06/25 02:01:32;;;;;;;0.55;0.55;;;17.70;99.90;;;;;;5073135;28;20265;-59
2022/06/25 02:03:58;;;;;;;0.60;0.60;;;17.60;99.90;;;;;;5038565;28;20543;-60
2022/06/25 02:06:24;;;;;;;0.50;0.50;;;17.60;99.90;;;;;;5073489;28;20182;-60
2022/06/25 02:08:50;;;;;;;0.30;0.30;;;17.60;99.90;;;;;;5055120;28;20739;-60
2022/06/25 02:11:15;;;;;;;0.63;0.63;;;17.60;99.90;;;;;;5054930;28;20254;-60
2022/06/25 02:13:41;;;;;;;0.40;0.40;;;17.60;99.90;;;;;;5073024;28;20239;-60
2022/06/25 02:16:07;;;;;;;0.50;0.50;;;17.60;99.90;;;;;;5072864;28;20513;-60
2022/06/25 02:18:33;;;;;;;0.50;0.50;;;17.60;99.90;;;;;;5072937;28;20254;-60
2022/06/25 02:20:59;;;;;;;0.60;0.60;;;17.60;99.90;;;;;;5072875;28;20296;-60
2022/06/25 02:23:24;;;;;;;0.70;0.70;;;17.70;99.90;;;;;;5054978;28;20175;-60
2022/06/25 02:25:50;;;;;;;0.73;0.60;;;17.60;99.90;;;;;;5072979;28;20632;-61
2022/06/25 02:28:17;;;;;;;0.50;0.50;;;17.70;99.90;;;;;;5074073;28;20239;-60
2022/06/25 02:30:43;;;;;;;0.70;0.60;;;17.60;99.90;;;;;;5058946;28;20186;-60
2022/06/25 02:33:11;;;;;;;0.60;0.50;;;17.60;99.90;;;;;;5058823;28;20264;-60
2022/06/25 02:35:41;;;;;;;0.70;0.57;;;17.60;99.90;;;;;;5076568;28;20178;-61
2022/06/25 02:38:09;;;;;;;0.45;0.45;;;17.60;99.90;;;;;;5076587;28;20210;-62
2022/06/25 02:40:34;;;;;;;0.38;0.38;;;17.60;99.90;;;;;;5076481;28;20179;-60
2022/06/25 02:43:01;;;;;;;0.65;0.50;;;17.60;99.90;;;;;;5076589;28;20201;-60
2022/06/25 02:45:28;;;;;;;0.40;0.40;;;17.50;99.90;;;;;;5058727;28;20667;-60
2022/06/25 02:47:56;;;;;;;0.57;0.40;;;17.50;99.90;;;;;;5076393;28;20178;-60
2022/06/25 02:50:22;;;;;;;1.50;0.52;;;17.50;99.90;;;;;;5076165;28;20211;-60
2022/06/25 02:52:48;;;;;;;0.68;0.60;;;17.60;99.90;;;;;;5058265;28;20206;-60
2022/06/25 02:55:13;;;;;;;0.68;0.63;;;17.50;99.90;;;;;;5058323;28;20198;-60
2022/06/25 03:00:43;;;;;;;0.60;0.60;;;17.50;99.90;;;;;;5014187;28;20562;-60
2022/06/25 03:03:09;;;;;;;0.60;0.60;;;17.50;99.90;;;;;;4981715;28;20192;-60
2022/06/25 03:05:35;;;;;;;1.33;0.73;;;17.60;99.90;;;;;;5025828;28;20191;-60
2022/06/25 03:08:01;;;;;;;0.70;0.70;;;17.50;99.90;;;;;;5076178;28;20171;-60
2022/06/25 03:10:27;;;;;;;0.55;0.55;;;17.50;99.90;;;;;;5076069;28;20174;-60
2022/06/25 03:12:52;;;;;;;1.17;0.75;;;17.40;99.90;;;;;;5075922;28;20210;-60
2022/06/25 03:15:18;;;;;;;0.75;0.60;;;17.50;99.90;;;;;;5075813;28;20198;-60
2022/06/25 03:17:44;;;;;;;0.50;0.50;;;17.60;99.90;;;;;;5057944;28;20528;-60
2022/06/25 03:20:10;;;;;;;0.60;0.60;;;17.60;99.90;;;;;;5075694;28;20237;-60
2022/06/25 03:22:36;;;;;;;0.60;0.47;;;17.60;99.90;;;;;;5075857;28;20352;-61
2022/06/25 03:25:02;;;;;;;0.70;0.70;;;17.70;99.90;;;;;;5074533;28;20217;-61
2022/06/25 03:27:27;;;;;;;0.73;0.50;;;17.70;99.90;;;;;;5057895;28;20663;-61
2022/06/25 03:29:53;;;;;;;0.45;0.45;;;17.80;99.90;;;;;;5057409;28;20198;-60
2022/06/25 03:32:19;;;;;;;0.60;0.50;;;17.70;99.90;;;;;;5075492;28;20291;-60
2022/06/25 03:34:44;;;;;;;0.50;0.50;;;17.70;99.90;;;;;;5074511;28;20185;-60
2022/06/25 03:37:10;;;;;;;0.73;0.40;;;17.80;99.90;;;;;;5075666;28;20221;-60
2022/06/25 03:39:36;;;;;;;0.38;0.38;;;17.80;99.90;;;;;;5074240;28;20654;-60
2022/06/25 03:42:01;;;;;;;0.40;0.40;;;17.80;99.90;;;;;;5057671;28;20183;-60
2022/06/25 03:44:27;;;;;;;0.40;0.40;;;17.90;99.90;;;;;;5057460;28;20710;-60
2022/06/25 03:46:53;;;;;;;0.32;0.32;;;17.90;99.90;;;;;;5057254;28;20178;-56
2022/06/25 03:49:18;;;;;;;0.30;0.30;;;18.00;99.90;;;;;;5057334;28;20171;-60
2022/06/25 03:51:44;;;;;;;0.65;0.47;;;18.00;99.90;;;;;;5075049;28;20229;-61
2022/06/25 03:54:10;;;;;;;0.40;0.40;;;18.20;99.90;;;;;;5075248;28;20202;-60
2022/06/25 03:56:35;;;;;;;0.30;0.30;;;18.20;99.90;;;;;;5057265;28;20206;-60
2022/06/25 03:59:01;;;;;;;0.30;0.30;;;18.20;99.90;;;;;;5075079;28;20563;-60
2022/06/25 04:01:28;;;;;;;0.63;0.40;;;18.20;99.90;;;;;;5074901;28;20186;-61
2022/06/25 04:03:54;;;;;;;0.38;0.38;;;18.20;99.90;;;;;;5040390;28;20208;-60
2022/06/25 04:06:20;;;;;;;0.20;0.20;;;18.20;99.90;;;;;;5074866;28;20234;-60
2022/06/25 04:08:45;;;;;;;0.30;0.30;;;18.20;99.90;;;;;;5074861;28;20189;-61
2022/06/25 04:11:11;;;;;;;0.30;0.30;;;18.20;99.90;;;;;;5056982;28;20182;-60
2022/06/25 04:13:37;;;;;;;0.30;0.30;;;18.20;99.90;;;;;;5057260;28;20691;-60
2022/06/25 04:16:03;;;;;;;0.30;0.30;;;18.20;99.90;;;;;;5074716;28;20167;-60
2022/06/25 04:18:29;;;;;;;0.32;0.32;;;18.20;99.90;;;;;;5056821;28;20171;-56
2022/06/25 04:20:54;;;;;;;1.30;0.40;;;18.20;99.90;;;;;;5074794;28;20171;-60
2022/06/25 04:23:20;;;;;;;0.90;0.28;;;18.20;99.90;;;;;;5040192;28;20666;-60
2022/06/25 04:25:46;;;;;;;0.30;0.30;;;18.30;99.90;;;;;;5074447;28;20171;-60
2022/06/25 04:30:55;;;;;;;0.57;0.30;;;18.30;99.90;;;;;;5074526;28;20559;-60
2022/06/25 04:33:21;;;;;;;0.40;0.40;;;18.40;99.90;;;;;;5056482;28;20210;-60
2022/06/25 04:35:46;;;;;;;0.15;0.15;;;18.40;99.90;;;;;;5074542;28;20635;-61
2022/06/25 04:38:12;;;;;;;0.30;0.30;;;18.50;99.90;;;;;;5074360;28;20228;-60
2022/06/25 04:40:38;;;;;;;0.20;0.20;;;18.30;99.90;;;;;;5074240;28;20196;-60
2022/06/25 04:43:03;;;;;;;0.30;0.30;;;18.40;99.90;;;;;;5056339;28;20214;-60
2022/06/25 04:45:29;;;;;;;0.40;0.30;;;18.40;99.90;;;;;;5074005;28;20174;-59
2022/06/25 04:48:02;;;;;;;0.38;0.38;;;18.40;99.90;;;;;;5074099;28;20228;-60
2022/06/25 04:50:27;;;;;;;0.38;0.38;;;18.50;99.90;;;;;;5073752;28;20175;-60
2022/06/25 04:52:53;;;;;;;0.20;0.20;;;18.50;99.90;;;;;;5073759;28;20574;-60
2022/06/25 04:55:19;;;;;;;0.30;0.30;;;18.50;99.90;;;;;;5056240;28;20624;-60
2022/06/25 04:57:45;;;;;;;0.38;0.25;;;18.50;99.90;;;;;;5073711;28;20257;-60
2022/06/25 05:00:11;;;;;;;0.35;0.35;;;18.50;99.90;;;;;;5073716;28;20179;-60
2022/06/25 05:02:38;;;;;;;0.28;0.28;;;18.40;99.90;;;;;;5073739;28;20514;-61
2022/06/25 05:05:05;;;;;;;0.20;0.20;;;18.40;99.90;;;;;;5073716;28;20493;-60
2022/06/25 05:07:30;;;;;;;0.52;0.52;;;18.40;99.90;;;;;;5055925;28;20185;-60
2022/06/25 05:09:56;;;;;;;0.50;0.50;;;18.40;99.90;;;;;;5073655;28;20174;-60
2022/06/25 05:15:07;;;;;;;0.40;0.40;;;18.40;99.90;;;;;;5058674;28;20232;-60
2022/06/25 05:17:33;;;;;;;0.65;0.50;;;18.40;99.90;;;;;;5073369;28;20658;-60
2022/06/25 05:20:00;;;;;;;0.40;0.40;;;18.40;99.90;;;;;;5073538;28;20178;-60
2022/06/25 05:22:25;;;;;;;0.40;0.40;;;18.30;99.90;;;;;;5055687;28;20178;-60
2022/06/25 05:24:51;;;;;;;0.20;0.20;;;18.50;99.90;;;;;;5055539;28;20383;-60
2022/06/25 05:27:17;;;;;;;0.25;0.25;;;18.50;99.90;;;;;;5055822;28;20173;-60
2022/06/25 05:29:43;;;;;;;0.50;0.50;;;18.50;99.90;;;;;;5055368;28;20195;-60
2022/06/25 05:32:09;;;;;;;0.32;0.32;;;18.50;99.90;;;;;;5073690;28;20210;-60
2022/06/25 05:34:35;;;;;;;0.20;0.20;;;18.60;99.90;;;;;;5073410;28;20171;-60
2022/06/25 05:37:01;;;;;;;0.25;0.25;;;18.70;99.90;;;;;;5055446;28;20737;-60
2022/06/25 05:39:26;;;;;;;1.33;0.50;;;18.50;99.90;;;;;;5073168;28;20628;-60
2022/06/25 05:41:52;;;;;;;0.88;0.32;;;18.50;99.90;;;;;;5073453;28;20650;-60
2022/06/25 05:44:18;;;;;;;0.47;0.47;;;18.60;99.90;;;;;;5073385;28;20175;-59
2022/06/25 05:46:44;;;;;;;0.40;0.40;;;18.70;99.90;;;;;;5073289;28;20175;-59
2022/06/25 05:49:10;;;;;;;1.55;0.50;;;18.60;99.90;;;;;;5073034;28;20175;-60
2022/06/25 05:51:36;;;;;;;0.35;0.35;;;18.70;99.90;;;;;;5072858;28;20232;-60
2022/06/25 05:54:02;;;;;;;0.57;0.40;;;18.80;99.90;;;;;;5072945;28;20170;-60
2022/06/25 05:56:27;;;;;;;0.30;0.30;;;18.80;99.90;;;;;;5073141;28;20175;-59
2022/06/25 05:58:53;;;;;;;0.50;0.50;;;18.80;99.90;;;;;;5072905;28;20214;-60
2022/06/25 06:01:18;;;;;;;0.30;0.30;;;18.90;99.90;;;;;;5055239;28;20170;-60
2022/06/25 06:03:44;;;;;;;1.58;0.40;;;18.80;99.90;;;;;;5057213;28;20170;-60
2022/06/25 06:06:10;;;;;;;0.32;0.32;;;18.90;99.90;;;;;;5059223;28;20175;-58
2022/06/25 06:08:35;;;;;;;0.30;0.30;;;18.90;99.90;;;;;;5072255;28;20209;-59
2022/06/25 06:11:01;;;;;;;0.50;0.50;;;18.80;99.90;;;;;;5076114;28;20179;-59
2022/06/25 06:13:27;;;;;;;0.40;0.30;;;18.80;99.90;;;;;;5076447;28;20209;-56
2022/06/25 06:15:52;;;;;;;0.50;0.40;;;18.90;99.90;;;;;;5076703;28;20175;-60
2022/06/25 06:18:18;;;;;;;0.65;0.50;;;18.90;99.90;;;;;;5076853;28;20182;-59
2022/06/25 06:20:44;;;;;;;0.65;0.30;;;18.90;99.90;;;;;;5058934;28;20175;-60
2022/06/25 06:23:09;;;;;;;0.25;0.20;;;19.00;99.90;;;;;;5076605;28;20197;-59
2022/06/25 06:25:35;;;;;;;0.40;0.40;;;19.10;99.90;;;;;;5076535;28;20243;-60
2022/06/25 06:28:01;;;;;;;0.40;0.40;;;19.20;99.90;;;;;;5058171;28;20195;-60
2022/06/25 06:30:26;;;;;;;0.30;0.30;;;19.40;99.90;;;;;;5076278;28;20623;-60
2022/06/25 06:32:52;;;;;;;0.47;0.32;;;19.70;99.90;;;;;;5076408;28;20605;-60
2022/06/25 06:35:18;;;;;;;2.38;0.60;;;19.50;99.90;;;;;;5076459;28;20230;-60
2022/06/25 06:37:44;;;;;;;0.30;0.30;;;19.50;99.90;;;;;;5058596;28;20174;-59
2022/06/25 06:40:10;;;;;;;0.22;0.22;;;19.40;99.90;;;;;;5058150;28;20639;-60
2022/06/25 06:42:36;;;;;;;0.30;0.30;;;19.50;99.90;;;;;;5076455;28;20563;-60
2022/06/25 06:45:02;;;;;;;0.43;0.38;;;19.30;99.90;;;;;;5076472;28;20574;-60
2022/06/25 06:47:28;;;;;;;0.30;0.30;;;19.30;99.90;;;;;;5076282;28;20166;-60
2022/06/25 06:49:54;;;;;;;0.22;0.22;;;19.20;99.90;;;;;;5061317;28;20236;-60
2022/06/25 06:52:20;;;;;;;0.45;0.45;;;19.10;99.90;;;;;;5058541;28;20226;-60
2022/06/25 06:54:46;;;;;;;0.55;0.40;;;19.10;99.90;;;;;;5038565;28;20182;-59
2022/06/25 06:57:12;;;;;;;0.43;0.43;;;19.00;99.90;;;;;;5061365;28;20182;-61
2022/06/25 06:59:38;;;;;;;2.72;0.40;;;18.90;99.90;;;;;;5055841;28;20183;-60
2022/06/25 07:02:04;;;;;;;0.65;0.40;;;18.70;99.90;;;;;;5073852;28;20319;-59
2022/06/25 07:04:29;;;;;;;0.20;0.20;;;18.70;99.90;;;;;;5056722;28;20513;-60
2022/06/25 07:06:55;;;;;;;1.17;0.30;;;18.70;99.90;;;;;;5075757;28;20182;-60
2022/06/25 07:09:21;;;;;;;0.40;0.40;;;18.70;99.90;;;;;;5057726;28;20186;-60
2022/06/25 07:11:47;;;;;;;0.30;0.30;;;18.80;99.90;;;;;;5041170;28;20575;-61
2022/06/25 07:14:13;;;;;;;1.48;0.30;;;18.80;99.90;;;;;;5075427;28;20182;-61
2022/06/25 07:16:39;;;;;;;0.40;0.40;;;18.90;99.90;;;;;;5075838;28;20647;-60
2022/06/25 07:19:05;;;;;;;0.40;0.40;;;19.00;99.90;;;;;;5075919;28;20210;-61
2022/06/25 07:21:31;;;;;;;0.40;0.40;;;19.10;99.90;;;;;;5075713;28;20263;-61
2022/06/25 07:23:57;;;;;;;0.30;0.30;;;19.10;99.90;;;;;;5075719;28;20681;-60
2022/06/25 07:26:23;;;;;;;0.20;0.20;;;19.20;99.90;;;;;;5057871;28;20175;-61
2022/06/25 07:28:51;;;;;;;0.70;0.40;;;19.30;99.90;;;;;;5057943;28;20258;-61
2022/06/25 07:31:17;;;;;;;0.38;0.35;;;19.40;99.90;;;;;;5075476;28;20252;-61
2022/06/25 07:33:43;;;;;;;0.55;0.40;;;19.60;99.90;;;;;;5075542;28;20520;-61
2022/06/25 07:36:09;;;;;;;0.43;0.43;;;19.60;99.90;;;;;;5057736;28;20265;-61
2022/06/25 07:38:35;;;;;;;0.40;0.40;;;19.50;99.90;;;;;;5075409;28;20162;-61
2022/06/25 07:41:01;;;;;;;0.30;0.30;;;19.80;99.90;;;;;;5057722;28;20205;-61
2022/06/25 07:43:27;;;;;;;0.38;0.30;;;19.70;99.90;;;;;;5075607;28;20171;-61
2022/06/25 07:45:57;;;;;;;0.40;0.38;;;19.70;99.90;;;;;;5075296;28;20183;-61
2022/06/25 07:48:23;;;;;;;0.52;0.52;;;19.50;99.90;;;;;;5075252;28;20170;-54
2022/06/25 07:53:33;;;;;;;0.40;0.40;;;19.40;99.90;;;;;;5059950;28;20291;-56
2022/06/25 07:56:00;;;;;;;0.30;0.30;;;19.20;99.90;;;;;;5057256;28;20174;-57
2022/06/25 07:58:26;;;;;;;0.30;0.30;;;19.10;99.90;;;;;;5057422;28;20175;-57
2022/06/25 08:00:52;;;;;;;0.50;0.50;;;19.10;99.90;;;;;;5057374;28;20193;-58
2022/06/25 08:03:18;;;;;;;0.38;0.38;;;19.10;99.90;;;;;;5075164;28;20179;-57
2022/06/25 08:05:46;;;;;;;0.45;0.35;;;19.00;99.90;;;;;;5075067;28;20190;-57
2022/06/25 08:08:12;;;;;;;0.30;0.30;;;18.80;99.90;;;;;;5074993;28;20179;-58
2022/06/25 08:10:38;;;;;;;0.30;0.30;;;18.70;99.90;;;;;;5057154;28;20183;-59
2022/06/25 08:13:04;;;;;;;0.22;0.22;;;18.60;99.90;;;;;;5074639;28;20301;-58
2022/06/25 08:15:30;;;;;;;0.30;0.30;;;18.60;99.90;;;;;;5074786;28;20317;-58
2022/06/25 08:17:55;;;;;;;0.30;0.30;;;18.70;99.90;;;;;;5074639;28;20179;-58
2022/06/25 08:20:21;;;;;;;0.30;0.30;;;18.80;99.90;;;;;;5074666;28;20171;-59
2022/06/25 08:22:47;;;;;;;0.40;0.40;;;18.90;99.90;;;;;;5074608;28;20256;-59
2022/06/25 08:25:14;;;;;;;0.25;0.25;;;19.00;99.90;;;;;;5056226;28;20201;-58
2022/06/25 08:27:51;;;;;;;0.30;0.30;;;19.00;99.90;;;;;;5074151;28;20171;-57
2022/06/25 08:30:18;;;;;;;0.30;0.30;;;18.90;99.90;;;;;;5074423;28;20190;-58
2022/06/25 08:32:44;;;;;;;0.93;0.70;;;19.00;99.90;;;;;;5056541;28;20214;-58
2022/06/25 08:35:10;;;;;;;1.73;1.20;;;19.20;99.90;;;;;;5074481;28;20167;-58
2022/06/25 08:37:42;;;;;;;0.90;0.70;;;19.20;99.90;;;;;;5074414;28;20711;-58
2022/06/25 08:40:09;;;;;;;1.58;0.65;;;19.40;99.90;;;;;;5074189;28;20635;-59
2022/06/25 08:42:35;;;;;;;0.82;0.57;;;19.40;99.90;;;;;;5074161;28;20687;-58
2022/06/25 08:45:01;;;;;;;0.47;0.47;;;19.40;99.90;;;;;;5074384;28;20198;-58
2022/06/25 08:47:27;;;;;;;0.50;0.50;;;19.40;99.90;;;;;;5074250;28;20213;-58
2022/06/25 08:49:53;;;;;;;0.57;0.57;;;19.60;99.90;;;;;;5074177;28;20517;-59
2022/06/25 08:52:20;;;;;;;1.30;0.70;;;19.80;99.90;;;;;;5074014;28;20198;-59
2022/06/25 08:54:47;;;;;;;0.70;0.60;;;20.20;99.90;;;;;;5074013;28;20174;-58
2022/06/25 08:57:13;;;;;;;1.42;0.73;;;20.40;99.90;;;;;;5073960;28;20170;-58
2022/06/25 08:59:39;;;;;;;1.58;0.60;;;20.50;99.90;;;;;;5074019;28;20252;-58
2022/06/25 09:02:04;;;;;;;0.75;0.70;;;20.40;99.90;;;;;;5073990;28;20183;-58
2022/06/25 09:04:31;;;;;;;1.30;0.77;;;20.40;99.90;;;;;;5073956;28;20225;-58
2022/06/25 09:07:18;;;;;;;0.75;0.70;;;20.30;99.90;;;;;;5056277;28;20198;-59
2022/06/25 09:09:46;;;;;;;1.35;0.88;;;20.20;99.90;;;;;;5073734;28;20510;-58
2022/06/25 09:12:15;;;;;;;0.80;0.50;;;20.30;99.90;;;;;;5073482;28;20702;-58
2022/06/25 09:14:41;;;;;;;0.68;0.60;;;20.10;99.90;;;;;;5073729;28;20167;-58
2022/06/25 09:17:12;;;;;;;0.60;0.60;;;20.10;99.90;;;;;;5055943;28;20251;-58
2022/06/25 09:19:44;;;;;;;0.50;0.45;;;20.10;99.90;;;;;;5073518;28;20178;-58
2022/06/25 09:22:12;;;;;;;0.77;0.75;;;19.90;99.90;;;;;;5073525;28;20175;-56
2022/06/25 09:24:41;;;;;;;0.93;0.57;;;19.90;99.90;;;;;;5055417;28;20631;-57
2022/06/25 09:27:06;;;;;;;0.50;0.50;;;20.20;99.90;;;;;;5055171;28;20209;-59
2022/06/25 09:29:40;;;;;;;0.65;0.65;;;20.40;99.90;;;;;;5072874;28;20171;-58
2022/06/25 09:32:06;;;;;;;0.70;0.70;;;20.50;99.90;;;;;;5072449;28;20740;-58
2022/06/25 09:34:37;;;;;;;1.05;0.95;;;21.10;99.90;;;;;;5054919;28;20182;-59
2022/06/25 09:37:19;;;;;;;1.17;0.93;;;21.50;99.90;;;;;;5055245;28;20175;-59
2022/06/25 09:39:49;;;;;;;0.50;0.50;;;21.60;99.90;;;;;;5073370;28;20231;-59
2022/06/25 09:42:23;;;;;;;1.05;0.70;;;22.20;99.90;;;;;;5073375;28;20524;-57
2022/06/25 09:45:15;;;;;;;0.45;0.45;;;22.60;99.90;;;;;;5073228;28;20180;-59
2022/06/25 09:47:43;;;;;;;0.52;0.52;;;22.70;99.90;;;;;;5073223;28;20170;-59
2022/06/25 09:50:17;;;;;;;0.60;0.60;;;22.80;99.90;;;;;;5073283;28;20178;-59
2022/06/25 09:52:59;;;;;;;0.50;0.50;;;22.40;99.90;;;;;;5055011;28;20201;-59
2022/06/25 09:55:34;;;;;;;1.40;0.60;;;22.60;99.90;;;;;;5073197;28;20213;-59
2022/06/25 09:58:01;;;;;;;0.68;0.68;;;22.50;99.90;;;;;;5073007;28;20658;-59
2022/06/25 10:00:27;;;;;;;0.65;0.65;;;22.90;99.90;;;;;;5073432;28;20167;-59
2022/06/25 10:02:56;;;;;;;0.50;0.50;;;23.00;99.90;;;;;;5073326;28;20267;-59
2022/06/25 10:05:34;;;;;;;0.80;0.80;;;23.00;99.90;;;;;;5055093;28;20174;-59
2022/06/25 10:08:04;;;;;;;0.82;0.70;;;23.20;99.90;;;;;;5073084;28;20171;-60
2022/06/25 10:10:40;;;;;;;0.65;0.65;;;22.90;99.90;;;;;;5039212;28;20269;-59
2022/06/25 10:13:07;;;;;;;0.88;0.80;;;22.60;99.90;;;;;;5073058;28;20241;-59
2022/06/25 10:15:33;;;;;;;0.93;0.70;;;22.50;99.90;;;;;;5073037;28;20210;-59
2022/06/25 10:18:04;;;;;;;0.80;0.80;;;22.40;99.90;;;;;;5055007;28;20551;-59
2022/06/25 10:20:31;;;;;;;0.93;0.93;;;22.10;99.90;;;;;;5072824;28;20209;-59
2022/06/25 10:22:59;;;;;;;0.55;0.55;;;21.60;99.90;;;;;;5072802;28;20182;-59
2022/06/25 10:25:27;;;;;;;0.60;0.60;;;21.60;99.90;;;;;;5073237;28;20181;-60
2022/06/25 10:28:07;;;;;;;0.93;0.80;;;21.70;99.90;;;;;;5072988;28;20178;-59
2022/06/25 10:30:42;;;;;;;0.50;0.50;;;21.60;99.90;;;;;;5072980;28;20190;-59
2022/06/25 10:33:08;;;;;;;1.08;0.73;;;21.50;99.90;;;;;;5072890;28;20194;-59
2022/06/25 10:35:36;;;;;;;1.80;0.65;;;21.60;99.90;;;;;;5072541;28;20186;-59
2022/06/25 10:38:19;;;;;;;0.57;0.40;;;21.60;99.90;;;;;;5054926;28;20178;-59
2022/06/25 10:40:58;;;;;;;0.60;0.60;;;21.60;99.90;;;;;;5072994;28;20173;-60
2022/06/25 10:43:37;;;;;;;1.00;0.60;;;21.40;99.90;;;;;;5072796;28;20181;-59
2022/06/25 10:46:33;;;;;;;0.50;0.50;;;21.30;99.90;;;;;;5071708;28;20187;-59
2022/06/25 10:49:12;;;;;;;0.88;0.55;;;21.40;99.90;;;;;;5073256;28;20183;-59
2022/06/25 10:51:48;;;;;;;0.73;0.63;;;21.60;99.90;;;;;;5058551;28;20174;-60
2022/06/25 10:54:23;;;;;;;0.50;0.50;;;22.00;99.90;;;;;;5076242;28;20166;-59
2022/06/25 10:56:54;;;;;;;0.50;0.50;;;22.40;99.90;;;;;;5076294;28;20531;-59
2022/06/25 10:59:46;;;;;;;0.88;0.50;;;22.70;99.90;;;;;;5076167;28;20177;-59
2022/06/25 11:02:15;;;;;;;0.60;0.60;;;23.10;99.90;;;;;;5076189;28;20186;-59
2022/06/25 11:04:50;;;;;;;1.52;0.52;;;23.40;99.90;;;;;;5075997;28;20171;-59
2022/06/25 11:07:22;;;;;;;0.45;0.45;;;23.50;99.90;;;;;;5076195;28;20243;-59
2022/06/25 11:10:02;;;;;;;0.50;0.50;;;23.30;99.90;;;;;;5076055;28;20312;-60
2022/06/25 11:12:34;;;;;;;0.63;0.50;;;23.10;99.90;;;;;;5076136;28;20244;-59
2022/06/25 11:15:06;;;;;;;0.80;0.50;;;22.70;99.90;;;;;;5075811;28;20254;-60
2022/06/25 11:17:32;;;;;;;0.43;0.43;;;22.80;99.90;;;;;;5075994;28;20174;-59
2022/06/25 11:20:07;;;;;;;0.45;0.45;;;22.60;99.90;;;;;;5075899;28;20171;-59
2022/06/25 11:22:33;;;;;;;0.65;0.65;;;22.40;99.90;;;;;;5075936;28;20654;-59
2022/06/25 11:30:28;;;;;;;0.50;0.50;;;22.00;99.90;;;;;;5076067;28;20722;-59
2022/06/25 11:32:54;;;;;;;0.60;0.60;;;21.90;99.90;;;;;;5057727;28;20318;-59
2022/06/25 11:35:20;;;;;;;0.40;0.40;;;21.80;99.90;;;;;;5075543;28;20217;-60
2022/06/25 11:37:45;;;;;;;0.90;0.40;;;21.80;99.90;;;;;;5057508;28;20531;-59
2022/06/25 11:40:15;;;;;;;0.47;0.40;;;21.90;99.90;;;;;;5075816;28;20579;-59
2022/06/25 11:42:43;;;;;;;0.88;0.65;;;22.10;99.90;;;;;;5075535;28;20175;-59
2022/06/25 11:45:09;;;;;;;0.55;0.50;;;22.00;99.90;;;;;;5075437;28;20170;-60
2022/06/25 11:47:36;;;;;;;0.50;0.50;;;22.00;99.90;;;;;;5075231;28;20697;-60
2022/06/25 11:50:11;;;;;;;0.55;0.40;;;22.00;99.90;;;;;;5057548;28;20198;-60
2022/06/25 11:52:44;;;;;;;0.40;0.40;;;21.80;99.90;;;;;;5040567;28;20213;-60
2022/06/25 11:55:11;;;;;;;0.65;0.47;;;21.70;99.90;;;;;;5075349;28;20171;-59
2022/06/25 11:57:43;;;;;;;0.30;0.30;;;21.60;99.90;;;;;;5075236;28;20273;-60
2022/06/25 12:00:14;;;;;;;0.38;0.38;;;21.50;99.90;;;;;;5056336;28;20187;-59
2022/06/25 12:02:42;;;;;;;0.40;0.40;;;21.40;99.90;;;;;;5056747;28;20177;-60
2022/06/25 12:05:08;;;;;;;0.50;0.30;;;21.30;99.90;;;;;;5057284;28;20174;-59
2022/06/25 12:07:34;;;;;;;1.75;0.55;;;21.20;99.90;;;;;;5074831;28;20253;-60
2022/06/25 12:10:11;;;;;;;0.32;0.32;;;21.10;99.90;;;;;;5074899;28;20229;-60
2022/06/25 12:12:38;;;;;;;1.05;0.68;;;21.10;99.90;;;;;;5074776;28;20198;-60
2022/06/25 12:15:04;;;;;;;0.50;0.50;;;21.00;99.90;;;;;;5057047;28;20178;-60
2022/06/25 12:17:37;;;;;;;0.80;0.35;;;21.10;99.90;;;;;;5056973;28;20632;-59
2022/06/25 12:20:06;;;;;;;0.38;0.38;;;21.00;99.90;;;;;;5074685;28;20170;-59
2022/06/25 12:22:35;;;;;;;0.40;0.40;;;21.00;99.90;;;;;;5074672;28;20178;-59
2022/06/25 12:25:00;;;;;;;0.30;0.30;;;20.90;99.90;;;;;;5074547;28;20201;-60
2022/06/25 12:27:27;;;;;;;0.40;0.40;;;20.80;99.90;;;;;;5074459;28;20632;-60
2022/06/25 12:29:55;;;;;;;0.47;0.40;;;20.80;99.90;;;;;;5074493;28;20194;-60
2022/06/25 12:32:36;;;;;;;0.50;0.50;;;20.70;99.90;;;;;;5074487;28;20564;-60
2022/06/25 12:35:02;;;;;;;0.60;0.50;;;20.60;99.90;;;;;;5074520;28;20296;-60
2022/06/25 12:37:29;;;;;;;0.35;0.35;;;20.40;99.90;;;;;;5056639;28;20188;-59
2022/06/25 12:39:57;;;;;;;0.68;0.50;;;20.40;99.90;;;;;;5074251;28;20681;-60
2022/06/25 12:42:24;;;;;;;0.40;0.35;;;20.10;99.90;;;;;;5074090;28;20540;-60
2022/06/25 12:44:50;;;;;;;0.73;0.55;;;20.00;99.90;;;;;;5056212;28;20225;-60
2022/06/25 12:47:17;;;;;;;0.63;0.63;;;19.90;99.90;;;;;;5074277;28;20509;-60
2022/06/25 12:49:53;;;;;;;0.55;0.52;;;19.90;99.90;;;;;;5056284;28;20647;-60
2022/06/25 12:52:26;;;;;;;0.52;0.52;;;19.90;99.90;;;;;;5074117;28;20197;-60
2022/06/25 12:54:55;;;;;;;0.40;0.40;;;19.90;99.90;;;;;;5073953;28;20668;-60
2022/06/25 12:57:25;;;;;;;0.55;0.47;;;19.70;99.90;;;;;;5073810;28;20210;-60
2022/06/25 12:59:52;;;;;;;0.65;0.50;;;19.60;99.90;;;;;;5056047;28;20174;-58
2022/06/25 13:02:19;;;;;;;0.55;0.55;;;19.60;99.90;;;;;;5056013;28;20228;-60
2022/06/25 13:04:45;;;;;;;0.30;0.30;;;19.60;99.90;;;;;;5073922;28;20229;-60
2022/06/25 13:07:12;;;;;;;0.50;0.50;;;19.60;99.90;;;;;;5073817;28;20204;-60